sensor_id;sensor_type;location;lat;lon;timestamp;P1;durP1;ratioP1;P2;durP2;ratioP2
36747;SDS011;22716;51.556;5.080;2022-12-18T00:00:14;58.77;;;26.93;;
36747;SDS011;22716;51.556;5.080;2022-12-18T00:02:46;58.27;;;26.37;;
36747;SDS011;22716;51.556;5.080;2022-12-18T00:05:15;55.10;;;24.03;;
36747;SDS011;22716;51.556;5.080;2022-12-18T00:07:43;63.43;;;25.97;;
36747;SDS011;22716;51.556;5.080;2022-12-18T00:10:12;57.53;;;22.73;;
36747;SDS011;22716;51.556;5.080;2022-12-18T00:12:41;63.53;;;26.53;;
36747;SDS011;22716;51.556;5.080;2022-12-18T00:15:10;57.77;;;26.00;;
36747;SDS011;22716;51.556;5.080;2022-12-18T00:17:38;51.47;;;24.27;;
36747;SDS011;22716;51.556;5.080;2022-12-18T00:20:10;53.70;;;22.10;;
36747;SDS011;22716;51.556;5.080;2022-12-18T00:22:39;57.63;;;24.70;;
36747;SDS011;22716;51.556;5.080;2022-12-18T00:25:08;49.03;;;21.97;;
36747;SDS011;22716;51.556;5.080;2022-12-18T00:27:37;50.03;;;23.70;;
36747;SDS011;22716;51.556;5.080;2022-12-18T00:30:06;50.53;;;23.53;;
36747;SDS011;22716;51.556;5.080;2022-12-18T00:32:35;54.40;;;23.53;;
36747;SDS011;22716;51.556;5.080;2022-12-18T00:35:05;46.93;;;20.90;;
36747;SDS011;22716;51.556;5.080;2022-12-18T00:37:38;51.30;;;21.77;;
36747;SDS011;22716;51.556;5.080;2022-12-18T00:40:07;52.80;;;22.90;;
36747;SDS011;22716;51.556;5.080;2022-12-18T00:42:38;50.50;;;23.47;;
36747;SDS011;22716;51.556;5.080;2022-12-18T00:45:19;44.90;;;22.10;;
36747;SDS011;22716;51.556;5.080;2022-12-18T00:47:48;46.63;;;22.03;;
36747;SDS011;22716;51.556;5.080;2022-12-18T00:50:17;47.80;;;21.27;;
36747;SDS011;22716;51.556;5.080;2022-12-18T00:52:48;46.57;;;21.80;;
36747;SDS011;22716;51.556;5.080;2022-12-18T00:55:17;46.00;;;20.80;;
36747;SDS011;22716;51.556;5.080;2022-12-18T00:57:46;40.53;;;19.37;;
36747;SDS011;22716;51.556;5.080;2022-12-18T01:00:15;45.33;;;20.63;;
36747;SDS011;22716;51.556;5.080;2022-12-18T01:02:44;45.93;;;22.83;;
36747;SDS011;22716;51.556;5.080;2022-12-18T01:05:13;45.97;;;20.17;;
36747;SDS011;22716;51.556;5.080;2022-12-18T01:07:43;40.13;;;19.37;;
36747;SDS011;22716;51.556;5.080;2022-12-18T01:10:14;43.83;;;19.87;;
36747;SDS011;22716;51.556;5.080;2022-12-18T01:12:43;46.37;;;21.13;;
36747;SDS011;22716;51.556;5.080;2022-12-18T01:15:12;42.77;;;19.70;;
36747;SDS011;22716;51.556;5.080;2022-12-18T01:17:41;40.60;;;20.00;;
36747;SDS011;22716;51.556;5.080;2022-12-18T01:20:11;42.57;;;21.30;;
36747;SDS011;22716;51.556;5.080;2022-12-18T01:22:41;41.33;;;20.87;;
36747;SDS011;22716;51.556;5.080;2022-12-18T01:25:09;43.60;;;21.53;;
36747;SDS011;22716;51.556;5.080;2022-12-18T01:27:41;36.40;;;18.97;;
36747;SDS011;22716;51.556;5.080;2022-12-18T01:30:10;37.30;;;20.60;;
36747;SDS011;22716;51.556;5.080;2022-12-18T01:32:40;38.37;;;17.87;;
36747;SDS011;22716;51.556;5.080;2022-12-18T01:35:09;36.03;;;18.93;;
36747;SDS011;22716;51.556;5.080;2022-12-18T01:37:38;37.07;;;19.03;;
36747;SDS011;22716;51.556;5.080;2022-12-18T01:40:07;40.53;;;18.00;;
36747;SDS011;22716;51.556;5.080;2022-12-18T01:42:37;37.03;;;17.00;;
36747;SDS011;22716;51.556;5.080;2022-12-18T01:45:20;44.27;;;18.70;;
36747;SDS011;22716;51.556;5.080;2022-12-18T01:47:52;39.63;;;19.30;;
36747;SDS011;22716;51.556;5.080;2022-12-18T01:50:23;34.67;;;18.47;;
36747;SDS011;22716;51.556;5.080;2022-12-18T01:52:57;37.63;;;20.50;;
36747;SDS011;22716;51.556;5.080;2022-12-18T01:55:29;33.90;;;16.20;;
36747;SDS011;22716;51.556;5.080;2022-12-18T01:58:00;33.13;;;16.93;;
36747;SDS011;22716;51.556;5.080;2022-12-18T02:00:32;37.07;;;18.40;;
36747;SDS011;22716;51.556;5.080;2022-12-18T02:03:02;29.33;;;17.10;;
36747;SDS011;22716;51.556;5.080;2022-12-18T02:05:36;34.30;;;18.27;;
36747;SDS011;22716;51.556;5.080;2022-12-18T02:08:13;35.60;;;16.93;;
36747;SDS011;22716;51.556;5.080;2022-12-18T02:10:48;35.67;;;16.10;;
36747;SDS011;22716;51.556;5.080;2022-12-18T02:13:26;35.83;;;17.50;;
36747;SDS011;22716;51.556;5.080;2022-12-18T02:16:04;33.27;;;16.93;;
36747;SDS011;22716;51.556;5.080;2022-12-18T02:18:43;36.23;;;18.27;;
36747;SDS011;22716;51.556;5.080;2022-12-18T02:21:20;32.03;;;16.33;;
36747;SDS011;22716;51.556;5.080;2022-12-18T02:24:00;34.80;;;17.00;;
36747;SDS011;22716;51.556;5.080;2022-12-18T02:26:45;34.23;;;18.17;;
36747;SDS011;22716;51.556;5.080;2022-12-18T02:29:20;35.00;;;16.97;;
36747;SDS011;22716;51.556;5.080;2022-12-18T02:34:23;33.43;;;15.50;;
36747;SDS011;22716;51.556;5.080;2022-12-18T02:36:56;33.20;;;16.10;;
36747;SDS011;22716;51.556;5.080;2022-12-18T02:39:26;30.80;;;15.30;;
36747;SDS011;22716;51.556;5.080;2022-12-18T02:42:00;28.67;;;15.00;;
36747;SDS011;22716;51.556;5.080;2022-12-18T02:44:33;32.67;;;15.47;;
36747;SDS011;22716;51.556;5.080;2022-12-18T02:47:02;35.23;;;15.17;;
36747;SDS011;22716;51.556;5.080;2022-12-18T02:49:33;27.70;;;15.07;;
36747;SDS011;22716;51.556;5.080;2022-12-18T02:52:12;33.03;;;14.70;;
36747;SDS011;22716;51.556;5.080;2022-12-18T02:54:51;30.57;;;15.20;;
36747;SDS011;22716;51.556;5.080;2022-12-18T02:57:33;32.47;;;15.73;;
36747;SDS011;22716;51.556;5.080;2022-12-18T03:00:06;30.33;;;14.30;;
36747;SDS011;22716;51.556;5.080;2022-12-18T03:02:39;31.00;;;14.67;;
36747;SDS011;22716;51.556;5.080;2022-12-18T03:05:17;29.20;;;14.97;;
36747;SDS011;22716;51.556;5.080;2022-12-18T03:07:52;32.72;;;14.35;;
36747;SDS011;22716;51.556;5.080;2022-12-18T03:10:25;25.27;;;9.77;;
36747;SDS011;22716;51.556;5.080;2022-12-18T03:13:02;22.87;;;12.67;;
36747;SDS011;22716;51.556;5.080;2022-12-18T03:15:35;27.43;;;14.33;;
36747;SDS011;22716;51.556;5.080;2022-12-18T03:18:07;25.80;;;13.40;;
36747;SDS011;22716;51.556;5.080;2022-12-18T03:20:39;25.07;;;13.70;;
36747;SDS011;22716;51.556;5.080;2022-12-18T03:23:12;24.73;;;12.37;;
36747;SDS011;22716;51.556;5.080;2022-12-18T03:25:44;23.33;;;13.17;;
36747;SDS011;22716;51.556;5.080;2022-12-18T03:28:18;31.33;;;14.03;;
36747;SDS011;22716;51.556;5.080;2022-12-18T03:30:50;27.93;;;13.67;;
36747;SDS011;22716;51.556;5.080;2022-12-18T03:33:24;23.60;;;11.63;;
36747;SDS011;22716;51.556;5.080;2022-12-18T03:35:55;25.17;;;13.13;;
36747;SDS011;22716;51.556;5.080;2022-12-18T03:38:24;25.40;;;13.33;;
36747;SDS011;22716;51.556;5.080;2022-12-18T03:40:56;26.17;;;13.73;;
36747;SDS011;22716;51.556;5.080;2022-12-18T03:43:35;24.40;;;12.33;;
36747;SDS011;22716;51.556;5.080;2022-12-18T03:46:12;23.00;;;11.77;;
36747;SDS011;22716;51.556;5.080;2022-12-18T03:48:51;24.40;;;12.07;;
36747;SDS011;22716;51.556;5.080;2022-12-18T03:51:26;23.20;;;12.30;;
36747;SDS011;22716;51.556;5.080;2022-12-18T03:54:01;25.07;;;14.07;;
36747;SDS011;22716;51.556;5.080;2022-12-18T03:56:33;25.47;;;12.80;;
36747;SDS011;22716;51.556;5.080;2022-12-18T03:59:09;28.70;;;13.82;;
36747;SDS011;22716;51.556;5.080;2022-12-18T04:01:42;25.35;;;12.65;;
36747;SDS011;22716;51.556;5.080;2022-12-18T04:04:14;24.43;;;12.53;;
36747;SDS011;22716;51.556;5.080;2022-12-18T04:06:46;23.37;;;12.40;;
36747;SDS011;22716;51.556;5.080;2022-12-18T04:09:17;26.97;;;13.07;;
36747;SDS011;22716;51.556;5.080;2022-12-18T04:11:47;21.10;;;10.63;;
36747;SDS011;22716;51.556;5.080;2022-12-18T04:14:19;23.03;;;12.20;;
36747;SDS011;22716;51.556;5.080;2022-12-18T04:16:48;22.67;;;11.77;;
36747;SDS011;22716;51.556;5.080;2022-12-18T04:19:17;21.30;;;10.90;;
36747;SDS011;22716;51.556;5.080;2022-12-18T04:21:45;20.33;;;10.97;;
36747;SDS011;22716;51.556;5.080;2022-12-18T04:24:14;23.10;;;11.73;;
36747;SDS011;22716;51.556;5.080;2022-12-18T04:26:43;22.33;;;12.00;;
36747;SDS011;22716;51.556;5.080;2022-12-18T04:29:11;22.63;;;10.93;;
36747;SDS011;22716;51.556;5.080;2022-12-18T04:31:43;22.20;;;10.63;;
36747;SDS011;22716;51.556;5.080;2022-12-18T04:34:12;22.23;;;11.00;;
36747;SDS011;22716;51.556;5.080;2022-12-18T04:36:40;22.97;;;11.67;;
36747;SDS011;22716;51.556;5.080;2022-12-18T04:39:09;23.97;;;11.90;;
36747;SDS011;22716;51.556;5.080;2022-12-18T04:41:38;22.87;;;11.43;;
36747;SDS011;22716;51.556;5.080;2022-12-18T04:44:06;20.60;;;11.17;;
36747;SDS011;22716;51.556;5.080;2022-12-18T04:46:35;24.87;;;11.23;;
36747;SDS011;22716;51.556;5.080;2022-12-18T04:49:07;19.23;;;10.40;;
36747;SDS011;22716;51.556;5.080;2022-12-18T04:51:36;26.57;;;12.30;;
36747;SDS011;22716;51.556;5.080;2022-12-18T04:54:05;22.60;;;10.97;;
36747;SDS011;22716;51.556;5.080;2022-12-18T04:56:33;20.43;;;11.37;;
36747;SDS011;22716;51.556;5.080;2022-12-18T04:59:02;21.60;;;10.87;;
36747;SDS011;22716;51.556;5.080;2022-12-18T05:01:34;20.17;;;11.80;;
36747;SDS011;22716;51.556;5.080;2022-12-18T05:04:03;22.93;;;10.27;;
36747;SDS011;22716;51.556;5.080;2022-12-18T05:06:34;22.30;;;11.50;;
36747;SDS011;22716;51.556;5.080;2022-12-18T05:09:03;17.80;;;10.23;;
36747;SDS011;22716;51.556;5.080;2022-12-18T05:11:32;24.43;;;9.97;;
36747;SDS011;22716;51.556;5.080;2022-12-18T05:14:00;19.63;;;9.63;;
36747;SDS011;22716;51.556;5.080;2022-12-18T05:16:29;20.13;;;10.27;;
36747;SDS011;22716;51.556;5.080;2022-12-18T05:18:58;22.67;;;9.90;;
36747;SDS011;22716;51.556;5.080;2022-12-18T05:21:26;18.20;;;10.37;;
36747;SDS011;22716;51.556;5.080;2022-12-18T05:23:57;17.03;;;9.23;;
36747;SDS011;22716;51.556;5.080;2022-12-18T05:26:26;18.20;;;10.17;;
36747;SDS011;22716;51.556;5.080;2022-12-18T05:28:55;20.43;;;10.80;;
36747;SDS011;22716;51.556;5.080;2022-12-18T05:31:24;21.33;;;10.27;;
36747;SDS011;22716;51.556;5.080;2022-12-18T05:33:53;21.03;;;10.83;;
36747;SDS011;22716;51.556;5.080;2022-12-18T05:36:22;23.60;;;11.27;;
36747;SDS011;22716;51.556;5.080;2022-12-18T05:38:51;19.27;;;10.07;;
36747;SDS011;22716;51.556;5.080;2022-12-18T05:41:22;19.13;;;9.20;;
36747;SDS011;22716;51.556;5.080;2022-12-18T05:43:51;20.07;;;10.53;;
36747;SDS011;22716;51.556;5.080;2022-12-18T05:46:20;20.37;;;10.20;;
36747;SDS011;22716;51.556;5.080;2022-12-18T05:48:49;19.57;;;10.53;;
36747;SDS011;22716;51.556;5.080;2022-12-18T05:51:19;20.43;;;9.87;;
36747;SDS011;22716;51.556;5.080;2022-12-18T05:53:49;16.67;;;9.53;;
36747;SDS011;22716;51.556;5.080;2022-12-18T05:56:19;14.93;;;9.27;;
36747;SDS011;22716;51.556;5.080;2022-12-18T05:58:51;22.43;;;10.03;;
36747;SDS011;22716;51.556;5.080;2022-12-18T06:01:23;20.40;;;10.87;;
36747;SDS011;22716;51.556;5.080;2022-12-18T06:03:53;18.97;;;9.30;;
36747;SDS011;22716;51.556;5.080;2022-12-18T06:06:22;17.73;;;9.13;;
36747;SDS011;22716;51.556;5.080;2022-12-18T06:08:54;19.27;;;9.77;;
36747;SDS011;22716;51.556;5.080;2022-12-18T06:11:26;23.20;;;9.63;;
36747;SDS011;22716;51.556;5.080;2022-12-18T06:13:55;28.73;;;9.80;;
36747;SDS011;22716;51.556;5.080;2022-12-18T06:16:24;18.93;;;9.23;;
36747;SDS011;22716;51.556;5.080;2022-12-18T06:18:53;18.03;;;9.10;;
36747;SDS011;22716;51.556;5.080;2022-12-18T06:21:24;21.80;;;11.00;;
36747;SDS011;22716;51.556;5.080;2022-12-18T06:23:52;21.23;;;10.17;;
36747;SDS011;22716;51.556;5.080;2022-12-18T06:26:21;19.40;;;10.00;;
36747;SDS011;22716;51.556;5.080;2022-12-18T06:28:53;22.67;;;10.67;;
36747;SDS011;22716;51.556;5.080;2022-12-18T06:31:22;19.57;;;10.53;;
36747;SDS011;22716;51.556;5.080;2022-12-18T06:33:51;23.20;;;10.70;;
36747;SDS011;22716;51.556;5.080;2022-12-18T06:36:19;17.43;;;10.07;;
36747;SDS011;22716;51.556;5.080;2022-12-18T06:38:49;18.17;;;9.53;;
36747;SDS011;22716;51.556;5.080;2022-12-18T06:41:18;18.97;;;8.97;;
36747;SDS011;22716;51.556;5.080;2022-12-18T06:43:49;18.90;;;8.97;;
36747;SDS011;22716;51.556;5.080;2022-12-18T06:46:20;21.37;;;10.47;;
36747;SDS011;22716;51.556;5.080;2022-12-18T06:48:49;18.07;;;9.93;;
36747;SDS011;22716;51.556;5.080;2022-12-18T06:51:19;22.13;;;10.17;;
36747;SDS011;22716;51.556;5.080;2022-12-18T06:53:49;21.73;;;10.47;;
36747;SDS011;22716;51.556;5.080;2022-12-18T06:56:18;18.07;;;9.83;;
36747;SDS011;22716;51.556;5.080;2022-12-18T06:58:47;19.80;;;9.97;;
36747;SDS011;22716;51.556;5.080;2022-12-18T07:01:15;20.03;;;10.23;;
36747;SDS011;22716;51.556;5.080;2022-12-18T07:03:51;23.87;;;10.93;;
36747;SDS011;22716;51.556;5.080;2022-12-18T07:06:20;20.10;;;10.33;;
36747;SDS011;22716;51.556;5.080;2022-12-18T07:08:52;20.53;;;10.13;;
36747;SDS011;22716;51.556;5.080;2022-12-18T07:11:22;21.93;;;10.53;;
36747;SDS011;22716;51.556;5.080;2022-12-18T07:13:51;21.83;;;10.57;;
36747;SDS011;22716;51.556;5.080;2022-12-18T07:16:21;21.47;;;11.43;;
36747;SDS011;22716;51.556;5.080;2022-12-18T07:18:53;19.03;;;9.30;;
36747;SDS011;22716;51.556;5.080;2022-12-18T07:21:23;20.53;;;10.30;;
36747;SDS011;22716;51.556;5.080;2022-12-18T07:23:53;17.83;;;9.73;;
36747;SDS011;22716;51.556;5.080;2022-12-18T07:26:22;14.67;;;8.77;;
36747;SDS011;22716;51.556;5.080;2022-12-18T07:28:54;18.27;;;10.27;;
36747;SDS011;22716;51.556;5.080;2022-12-18T07:31:23;21.17;;;10.30;;
36747;SDS011;22716;51.556;5.080;2022-12-18T07:33:55;16.57;;;8.53;;
36747;SDS011;22716;51.556;5.080;2022-12-18T07:36:24;21.17;;;10.27;;
36747;SDS011;22716;51.556;5.080;2022-12-18T07:38:53;17.50;;;9.80;;
36747;SDS011;22716;51.556;5.080;2022-12-18T07:41:22;19.43;;;10.00;;
36747;SDS011;22716;51.556;5.080;2022-12-18T07:43:50;17.07;;;10.00;;
36747;SDS011;22716;51.556;5.080;2022-12-18T07:46:19;17.47;;;9.70;;
36747;SDS011;22716;51.556;5.080;2022-12-18T07:48:48;19.57;;;10.77;;
36747;SDS011;22716;51.556;5.080;2022-12-18T07:51:19;16.77;;;9.63;;
36747;SDS011;22716;51.556;5.080;2022-12-18T07:53:48;17.10;;;9.53;;
36747;SDS011;22716;51.556;5.080;2022-12-18T07:56:17;16.70;;;9.37;;
36747;SDS011;22716;51.556;5.080;2022-12-18T07:58:46;20.37;;;8.83;;
36747;SDS011;22716;51.556;5.080;2022-12-18T08:01:15;23.33;;;9.40;;
36747;SDS011;22716;51.556;5.080;2022-12-18T08:03:44;15.47;;;8.57;;
36747;SDS011;22716;51.556;5.080;2022-12-18T08:06:12;16.87;;;9.33;;
36747;SDS011;22716;51.556;5.080;2022-12-18T08:08:44;19.23;;;9.63;;
36747;SDS011;22716;51.556;5.080;2022-12-18T08:11:13;21.13;;;9.67;;
36747;SDS011;22716;51.556;5.080;2022-12-18T08:13:41;18.90;;;10.30;;
36747;SDS011;22716;51.556;5.080;2022-12-18T08:16:10;15.50;;;9.20;;
36747;SDS011;22716;51.556;5.080;2022-12-18T08:18:38;18.40;;;10.23;;
36747;SDS011;22716;51.556;5.080;2022-12-18T08:21:08;19.67;;;9.70;;
36747;SDS011;22716;51.556;5.080;2022-12-18T08:23:37;15.03;;;9.37;;
36747;SDS011;22716;51.556;5.080;2022-12-18T08:26:09;14.53;;;9.77;;
36747;SDS011;22716;51.556;5.080;2022-12-18T08:28:38;18.20;;;9.67;;
36747;SDS011;22716;51.556;5.080;2022-12-18T08:31:08;20.77;;;9.17;;
36747;SDS011;22716;51.556;5.080;2022-12-18T08:33:37;17.80;;;8.93;;
36747;SDS011;22716;51.556;5.080;2022-12-18T08:36:08;23.20;;;10.20;;
36747;SDS011;22716;51.556;5.080;2022-12-18T08:38:38;18.67;;;9.70;;
36747;SDS011;22716;51.556;5.080;2022-12-18T08:41:10;17.20;;;10.30;;
36747;SDS011;22716;51.556;5.080;2022-12-18T08:43:40;20.80;;;9.77;;
36747;SDS011;22716;51.556;5.080;2022-12-18T08:46:23;21.13;;;9.33;;
36747;SDS011;22716;51.556;5.080;2022-12-18T08:48:54;21.07;;;9.47;;
36747;SDS011;22716;51.556;5.080;2022-12-18T08:51:23;21.37;;;9.70;;
36747;SDS011;22716;51.556;5.080;2022-12-18T08:53:52;19.40;;;10.33;;
36747;SDS011;22716;51.556;5.080;2022-12-18T08:56:23;15.57;;;9.13;;
36747;SDS011;22716;51.556;5.080;2022-12-18T08:58:52;17.30;;;8.70;;
36747;SDS011;22716;51.556;5.080;2022-12-18T09:01:23;14.80;;;9.37;;
36747;SDS011;22716;51.556;5.080;2022-12-18T09:03:52;21.43;;;9.40;;
36747;SDS011;22716;51.556;5.080;2022-12-18T09:06:22;21.30;;;9.77;;
36747;SDS011;22716;51.556;5.080;2022-12-18T09:08:51;15.60;;;8.60;;
36747;SDS011;22716;51.556;5.080;2022-12-18T09:11:21;16.27;;;10.03;;
36747;SDS011;22716;51.556;5.080;2022-12-18T09:13:53;23.40;;;10.40;;
36747;SDS011;22716;51.556;5.080;2022-12-18T09:16:23;14.97;;;10.67;;
36747;SDS011;22716;51.556;5.080;2022-12-18T09:18:53;15.07;;;9.33;;
36747;SDS011;22716;51.556;5.080;2022-12-18T09:21:25;16.90;;;9.03;;
36747;SDS011;22716;51.556;5.080;2022-12-18T09:23:55;17.20;;;8.57;;
36747;SDS011;22716;51.556;5.080;2022-12-18T09:26:27;17.67;;;9.43;;
36747;SDS011;22716;51.556;5.080;2022-12-18T09:28:56;17.17;;;10.63;;
36747;SDS011;22716;51.556;5.080;2022-12-18T09:31:25;17.67;;;9.23;;
36747;SDS011;22716;51.556;5.080;2022-12-18T09:33:54;17.43;;;9.37;;
36747;SDS011;22716;51.556;5.080;2022-12-18T09:36:23;15.00;;;8.77;;
36747;SDS011;22716;51.556;5.080;2022-12-18T09:38:52;20.50;;;9.60;;
36747;SDS011;22716;51.556;5.080;2022-12-18T09:41:39;17.20;;;9.13;;
36747;SDS011;22716;51.556;5.080;2022-12-18T09:44:15;14.80;;;8.37;;
36747;SDS011;22716;51.556;5.080;2022-12-18T09:46:50;18.67;;;8.37;;
36747;SDS011;22716;51.556;5.080;2022-12-18T09:49:27;16.33;;;9.67;;
36747;SDS011;22716;51.556;5.080;2022-12-18T09:52:00;15.83;;;9.30;;
36747;SDS011;22716;51.556;5.080;2022-12-18T09:54:33;15.90;;;9.10;;
36747;SDS011;22716;51.556;5.080;2022-12-18T09:57:09;17.07;;;9.77;;
36747;SDS011;22716;51.556;5.080;2022-12-18T09:59:41;19.85;;;10.38;;
36747;SDS011;22716;51.556;5.080;2022-12-18T10:02:13;16.20;;;9.10;;
36747;SDS011;22716;51.556;5.080;2022-12-18T10:04:48;19.85;;;10.07;;
36747;SDS011;22716;51.556;5.080;2022-12-18T10:07:33;15.45;;;10.20;;
36747;SDS011;22716;51.556;5.080;2022-12-18T10:10:15;19.40;;;10.77;;
36747;SDS011;22716;51.556;5.080;2022-12-18T10:13:00;18.33;;;10.93;;
36747;SDS011;22716;51.556;5.080;2022-12-18T10:15:39;15.70;;;8.77;;
36747;SDS011;22716;51.556;5.080;2022-12-18T10:18:17;16.70;;;9.70;;
36747;SDS011;22716;51.556;5.080;2022-12-18T10:20:56;15.83;;;9.57;;
36747;SDS011;22716;51.556;5.080;2022-12-18T10:23:32;19.10;;;9.87;;
36747;SDS011;22716;51.556;5.080;2022-12-18T10:26:10;16.23;;;10.43;;
36747;SDS011;22716;51.556;5.080;2022-12-18T10:28:42;15.17;;;9.50;;
36747;SDS011;22716;51.556;5.080;2022-12-18T10:31:13;21.77;;;11.63;;
36747;SDS011;22716;51.556;5.080;2022-12-18T10:33:44;21.23;;;11.77;;
36747;SDS011;22716;51.556;5.080;2022-12-18T10:36:13;20.63;;;11.80;;
36747;SDS011;22716;51.556;5.080;2022-12-18T10:38:42;20.23;;;11.43;;
36747;SDS011;22716;51.556;5.080;2022-12-18T10:41:23;22.57;;;13.07;;
36747;SDS011;22716;51.556;5.080;2022-12-18T10:44:14;19.07;;;11.03;;
36747;SDS011;22716;51.556;5.080;2022-12-18T10:46:46;18.63;;;10.63;;
36747;SDS011;22716;51.556;5.080;2022-12-18T10:49:25;22.63;;;10.30;;
36747;SDS011;22716;51.556;5.080;2022-12-18T10:52:07;19.67;;;10.53;;
36747;SDS011;22716;51.556;5.080;2022-12-18T10:54:46;18.67;;;10.23;;
36747;SDS011;22716;51.556;5.080;2022-12-18T10:57:28;18.15;;;10.20;;
36747;SDS011;22716;51.556;5.080;2022-12-18T11:00:19;20.17;;;10.93;;
36747;SDS011;22716;51.556;5.080;2022-12-18T11:02:53;18.70;;;11.13;;
36747;SDS011;22716;51.556;5.080;2022-12-18T11:05:25;19.27;;;11.17;;
36747;SDS011;22716;51.556;5.080;2022-12-18T11:07:57;15.17;;;9.47;;
36747;SDS011;22716;51.556;5.080;2022-12-18T11:10:28;18.63;;;10.57;;
36747;SDS011;22716;51.556;5.080;2022-12-18T11:13:15;20.53;;;11.27;;
36747;SDS011;22716;51.556;5.080;2022-12-18T11:15:49;17.37;;;11.07;;
36747;SDS011;22716;51.556;5.080;2022-12-18T11:18:20;19.53;;;11.33;;
36747;SDS011;22716;51.556;5.080;2022-12-18T11:20:53;17.93;;;9.77;;
36747;SDS011;22716;51.556;5.080;2022-12-18T11:23:24;18.43;;;10.07;;
36747;SDS011;22716;51.556;5.080;2022-12-18T11:25:55;18.83;;;11.00;;
36747;SDS011;22716;51.556;5.080;2022-12-18T11:28:28;18.53;;;10.23;;
36747;SDS011;22716;51.556;5.080;2022-12-18T11:31:16;18.00;;;10.57;;
36747;SDS011;22716;51.556;5.080;2022-12-18T11:33:53;17.63;;;10.53;;
36747;SDS011;22716;51.556;5.080;2022-12-18T11:36:27;16.40;;;10.40;;
36747;SDS011;22716;51.556;5.080;2022-12-18T11:38:59;17.67;;;11.10;;
36747;SDS011;22716;51.556;5.080;2022-12-18T11:41:34;21.20;;;12.07;;
36747;SDS011;22716;51.556;5.080;2022-12-18T11:44:22;18.43;;;11.10;;
36747;SDS011;22716;51.556;5.080;2022-12-18T11:46:59;16.47;;;10.00;;
36747;SDS011;22716;51.556;5.080;2022-12-18T11:49:33;17.63;;;11.33;;
36747;SDS011;22716;51.556;5.080;2022-12-18T11:52:07;17.27;;;10.47;;
36747;SDS011;22716;51.556;5.080;2022-12-18T11:54:42;17.53;;;10.60;;
36747;SDS011;22716;51.556;5.080;2022-12-18T11:57:13;21.53;;;9.87;;
36747;SDS011;22716;51.556;5.080;2022-12-18T11:59:49;21.60;;;11.50;;
36747;SDS011;22716;51.556;5.080;2022-12-18T12:02:33;17.03;;;9.37;;
36747;SDS011;22716;51.556;5.080;2022-12-18T12:08:11;15.48;;;10.25;;
36747;SDS011;22716;51.556;5.080;2022-12-18T12:10:49;17.60;;;10.57;;
36747;SDS011;22716;51.556;5.080;2022-12-18T12:13:35;20.27;;;11.10;;
36747;SDS011;22716;51.556;5.080;2022-12-18T12:16:16;20.90;;;11.23;;
36747;SDS011;22716;51.556;5.080;2022-12-18T12:18:59;17.33;;;10.00;;
36747;SDS011;22716;51.556;5.080;2022-12-18T12:21:36;21.37;;;10.67;;
36747;SDS011;22716;51.556;5.080;2022-12-18T12:24:12;19.42;;;10.88;;
36747;SDS011;22716;51.556;5.080;2022-12-18T12:26:56;17.57;;;11.07;;
36747;SDS011;22716;51.556;5.080;2022-12-18T12:29:37;19.40;;;11.27;;
36747;SDS011;22716;51.556;5.080;2022-12-18T12:32:19;20.63;;;12.17;;
36747;SDS011;22716;51.556;5.080;2022-12-18T12:35:05;12.23;;;7.70;;
36747;SDS011;22716;51.556;5.080;2022-12-18T12:37:43;22.10;;;12.10;;
36747;SDS011;22716;51.556;5.080;2022-12-18T12:40:22;24.93;;;11.27;;
36747;SDS011;22716;51.556;5.080;2022-12-18T12:42:55;17.50;;;10.90;;
36747;SDS011;22716;51.556;5.080;2022-12-18T12:45:41;19.63;;;12.13;;
36747;SDS011;22716;51.556;5.080;2022-12-18T12:50:49;16.17;;;9.87;;
36747;SDS011;22716;51.556;5.080;2022-12-18T12:53:22;20.23;;;11.83;;
36747;SDS011;22716;51.556;5.080;2022-12-18T12:55:55;18.73;;;11.67;;
36747;SDS011;22716;51.556;5.080;2022-12-18T12:58:29;17.47;;;10.37;;
36747;SDS011;22716;51.556;5.080;2022-12-18T13:01:08;18.00;;;11.13;;
36747;SDS011;22716;51.556;5.080;2022-12-18T13:03:51;18.67;;;11.47;;
36747;SDS011;22716;51.556;5.080;2022-12-18T13:06:33;22.83;;;11.27;;
36747;SDS011;22716;51.556;5.080;2022-12-18T13:09:09;21.10;;;10.90;;
36747;SDS011;22716;51.556;5.080;2022-12-18T13:11:38;19.50;;;11.67;;
36747;SDS011;22716;51.556;5.080;2022-12-18T13:14:29;19.00;;;11.47;;
36747;SDS011;22716;51.556;5.080;2022-12-18T13:17:16;21.50;;;11.67;;
36747;SDS011;22716;51.556;5.080;2022-12-18T13:20:05;21.73;;;11.00;;
36747;SDS011;22716;51.556;5.080;2022-12-18T13:22:40;20.40;;;10.60;;
36747;SDS011;22716;51.556;5.080;2022-12-18T13:25:31;19.65;;;11.82;;
36747;SDS011;22716;51.556;5.080;2022-12-18T13:28:04;18.50;;;10.87;;
36747;SDS011;22716;51.556;5.080;2022-12-18T13:30:48;17.13;;;10.73;;
36747;SDS011;22716;51.556;5.080;2022-12-18T13:33:38;21.23;;;10.87;;
36747;SDS011;22716;51.556;5.080;2022-12-18T13:36:14;18.00;;;10.60;;
36747;SDS011;22716;51.556;5.080;2022-12-18T13:48:18;17.73;;;10.82;;
36747;SDS011;22716;51.556;5.080;2022-12-18T13:50:55;18.20;;;11.77;;
36747;SDS011;22716;51.556;5.080;2022-12-18T13:53:28;18.53;;;11.73;;
36747;SDS011;22716;51.556;5.080;2022-12-18T13:56:02;20.35;;;11.88;;
36747;SDS011;22716;51.556;5.080;2022-12-18T13:58:31;22.58;;;12.95;;
36747;SDS011;22716;51.556;5.080;2022-12-18T14:01:03;20.97;;;12.37;;
36747;SDS011;22716;51.556;5.080;2022-12-18T14:03:44;12.77;;;8.70;;
36747;SDS011;22716;51.556;5.080;2022-12-18T14:06:13;19.10;;;10.90;;
36747;SDS011;22716;51.556;5.080;2022-12-18T14:08:42;21.20;;;11.23;;
36747;SDS011;22716;51.556;5.080;2022-12-18T14:11:18;17.20;;;11.60;;
36747;SDS011;22716;51.556;5.080;2022-12-18T14:13:50;19.60;;;11.27;;
36747;SDS011;22716;51.556;5.080;2022-12-18T14:16:21;21.93;;;11.30;;
36747;SDS011;22716;51.556;5.080;2022-12-18T14:18:52;19.73;;;11.27;;
36747;SDS011;22716;51.556;5.080;2022-12-18T14:21:25;21.37;;;12.37;;
36747;SDS011;22716;51.556;5.080;2022-12-18T14:24:04;20.10;;;11.10;;
36747;SDS011;22716;51.556;5.080;2022-12-18T14:26:40;20.77;;;12.10;;
36747;SDS011;22716;51.556;5.080;2022-12-18T14:29:24;25.97;;;12.53;;
36747;SDS011;22716;51.556;5.080;2022-12-18T14:32:09;19.60;;;12.50;;
36747;SDS011;22716;51.556;5.080;2022-12-18T14:34:42;23.63;;;11.97;;
36747;SDS011;22716;51.556;5.080;2022-12-18T14:37:12;19.17;;;11.60;;
36747;SDS011;22716;51.556;5.080;2022-12-18T14:39:52;22.17;;;12.57;;
36747;SDS011;22716;51.556;5.080;2022-12-18T14:42:25;14.67;;;10.17;;
36747;SDS011;22716;51.556;5.080;2022-12-18T14:47:56;19.50;;;12.07;;
36747;SDS011;22716;51.556;5.080;2022-12-18T14:50:26;21.33;;;11.67;;
36747;SDS011;22716;51.556;5.080;2022-12-18T14:52:55;19.80;;;11.80;;
36747;SDS011;22716;51.556;5.080;2022-12-18T14:55:24;19.60;;;11.37;;
36747;SDS011;22716;51.556;5.080;2022-12-18T14:57:53;20.03;;;13.03;;
36747;SDS011;22716;51.556;5.080;2022-12-18T15:00:24;21.80;;;12.43;;
36747;SDS011;22716;51.556;5.080;2022-12-18T15:02:54;21.60;;;11.93;;
36747;SDS011;22716;51.556;5.080;2022-12-18T15:05:27;18.70;;;11.60;;
36747;SDS011;22716;51.556;5.080;2022-12-18T15:07:59;17.83;;;11.43;;
36747;SDS011;22716;51.556;5.080;2022-12-18T15:10:29;20.87;;;11.50;;
36747;SDS011;22716;51.556;5.080;2022-12-18T15:13:09;19.77;;;11.47;;
36747;SDS011;22716;51.556;5.080;2022-12-18T15:15:50;23.03;;;11.90;;